Volgo-don 191 — UCGX — position and weather

sailwx.info

Track history (hours):
 
Tides and Currents Weather Stations Pressure Air Temp Water Temp Dewpoint Dewpoint Depression Visibility Wind Speed Wind Dir Waves Ship Positions

Volgo-don 191

Last reported at 2017-Nov-09 10:35 UTC. Time now 2017-Nov-22 07:35 UTC.
Position N 45°29' E 036°47'.
Warning: this ship's position is 12 days out of date.

Length 138 m; draft 2.4 m.

Type: Cargo ship. MMSI: 273438720.

Date/timePositionNaut miles runAvg speedWind from/ knotsBaromVisibWave heightAir tempDewpointWater temp
2017-Nov-09 10:35N 45°29' E 036°47'1 7.2
2017-Nov-09 10:31N 45°28' E 036°46'4 7.0
2017-Nov-09 10:00N 45°27' E 036°42'4 7.0
2017-Nov-09 09:30N 45°23' E 036°40'3 6.5
2017-Nov-09 08:59N 45°21' E 036°38'4 7.2
2017-Nov-09 08:30N 45°19' E 036°33'3 6.9
2017-Nov-09 08:00N 45°17' E 036°29'2 0.1
2017-Nov-07 14:29N 45°15' E 036°28'3 6.6
2017-Nov-07 13:59N 45°18' E 036°29'4 7.6
2017-Nov-07 13:29N 45°19' E 036°34'3 5.4
2017-Nov-07 13:00N 45°20' E 036°38'3 5.7
2017-Nov-07 12:29N 45°22' E 036°40'2 4.3
2017-Nov-07 12:00N 45°24' E 036°41'2 3.3
2017-Nov-07 11:29N 45°26' E 036°42'  
Track history (hours):
 
Tides and Currents Weather Stations Pressure Air Temp Water Temp Dewpoint Dewpoint Depression Visibility Wind Speed Wind Dir Waves Ship Positions

Volgo-don 191

Last reported at 2017-Nov-09 10:35 UTC. Time now 2017-Nov-22 07:35 UTC.
Position N 45°29' E 036°47'.
Warning: this ship's position is 12 days out of date.

Length 138 m; draft 2.4 m.

Type: Cargo ship. MMSI: 273438720.

Date/timePositionNaut miles runAvg speedWind from/ knotsBaromVisibWave heightAir tempDewpointWater temp
2017-Nov-09 10:35N 45°29' E 036°47'1 7.2
2017-Nov-09 10:31N 45°28' E 036°46'4 7.0
2017-Nov-09 10:00N 45°27' E 036°42'4 7.0
2017-Nov-09 09:30N 45°23' E 036°40'3 6.5
2017-Nov-09 08:59N 45°21' E 036°38'4 7.2
2017-Nov-09 08:30N 45°19' E 036°33'3 6.9
2017-Nov-09 08:00N 45°17' E 036°29'2 0.1
2017-Nov-07 14:29N 45°15' E 036°28'3 6.6
2017-Nov-07 13:59N 45°18' E 036°29'4 7.6
2017-Nov-07 13:29N 45°19' E 036°34'3 5.4
2017-Nov-07 13:00N 45°20' E 036°38'3 5.7
2017-Nov-07 12:29N 45°22' E 036°40'2 4.3
2017-Nov-07 12:00N 45°24' E 036°41'2 3.3
2017-Nov-07 11:29N 45°26' E 036°42'  

Dump ship's entire track history